KMYF/MYF METAR and TAF weather

Enter ICAO airport designator
Station Type Date Time Source
KMYF METAR 2018/12/19 02:53 UTC NOAA

KMYF 190253Z 35006KT 8SM CLR 14/12 A3015 RMK AO2 SLP208 T01440122 53004


Station Type Date Time Source
KMYF Decoded METAR 2018/12/19 02:53 UTC NOAA

SAN DIEGO MONTGOMERY FIELD, CA, United States (KMYF) 32-49N 117-08W 136M
Dec 18, 2018 - 09:53 PM EST / 2018.12.19 0253 UTC
Wind: from the N (350 degrees) at 7 MPH (6 KT):0
Visibility: 8 mile(s):0
Sky conditions: clear
Temperature: 57.9 F (14.4 C)
Dew Point: 54.0 F (12.2 C)
Relative Humidity: 86%
Pressure (altimeter): 30.15 in. Hg (1020 hPa)
Pressure tendency: 0.01 inches (0.4 hPa) higher than three hours ago
ob: KMYF 190253Z 35006KT 8SM CLR 14/12 A3015 RMK AO2 SLP208 T01440122 53004
cycle: 3

Station Type Date Time Source
KMYF TAF UTC NOAA

Error!


Example: see airport list